Time;durP1;ratioP1;P1;durP2;ratioP2;P2;SDS_P1;SDS_P2;PMS_P1;PMS_P2;Temp;Humidity;BMP_temperature;BMP_pressure;BME280_temperature;BME280_humidity;BME280_pressure;Samples;Min_cycle;Max_cycle;Signal;HPM_P1;HPM_P2
2021/06/03 00:01:13;;;;;;;3.62;1.45;;;;;;;13.50;54.04;100622.34;1667493;85;21068;-90
2021/06/03 00:03:40;;;;;;;5.03;1.77;;;;;;;13.52;54.03;100622.16;1660667;86;21093;-89
2021/06/03 00:06:06;;;;;;;1.77;1.10;;;;;;;13.51;54.15;100620.00;1669388;84;21073;-88
2021/06/03 00:08:33;;;;;;;4.92;1.35;;;;;;;13.49;54.36;100616.70;1663742;86;21025;-91
2021/06/03 00:11:11;;;;;;;7.72;1.30;;;;;;;13.41;54.62;100615.02;1664712;84;21049;-91
2021/06/03 00:13:40;;;;;;;2.60;1.47;;;;;;;13.36;54.50;100614.79;1659005;85;21197;-91
2021/06/03 00:16:11;;;;;;;5.83;1.60;;;;;;;13.35;54.62;100620.34;1663952;86;21502;-88
2021/06/03 00:18:39;;;;;;;4.53;1.77;;;;;;;13.34;54.62;100625.39;1668905;84;21617;-89
2021/06/03 00:21:08;;;;;;;3.17;1.42;;;;;;;13.33;54.61;100619.19;1652623;86;21061;-91
2021/06/03 00:23:35;;;;;;;4.47;2.05;;;;;;;13.34;54.60;100617.37;1676594;84;21072;-88
2021/06/03 00:26:03;;;;;;;4.17;1.52;;;;;;;13.34;54.48;100623.54;1627035;87;21091;-88
2021/06/03 00:28:31;;;;;;;5.53;1.35;;;;;;;13.32;54.79;100610.05;1618887;87;21046;-87
2021/06/03 00:30:59;;;;;;;3.27;1.77;;;;;;;13.25;54.99;100618.00;1636681;87;21571;-89
2021/06/03 00:33:25;;;;;;;3.02;1.25;;;;;;;13.25;54.68;100623.36;1613273;88;21054;-89
2021/06/03 00:35:52;;;;;;;3.90;1.87;;;;;;;13.19;55.08;100620.15;1607601;88;21120;-89
2021/06/03 00:40:56;;;;;;;2.50;1.62;;;;;;;13.19;54.84;100618.81;1866536;75;23857;-90
2021/06/03 00:43:24;;;;;;;4.47;1.95;;;;;;;13.11;55.20;100626.98;1841336;75;21009;-89
2021/06/03 00:45:50;;;;;;;8.15;1.50;;;;;;;13.04;55.54;100627.78;1807449;76;21081;-87
2021/06/03 00:48:16;;;;;;;10.78;1.60;;;;;;;13.04;55.37;100626.44;1796453;78;21065;-85
2021/06/03 00:50:52;;;;;;;3.67;1.87;;;;;;;13.02;55.61;100627.16;1795861;78;21104;-89
2021/06/03 00:53:20;;;;;;;2.42;1.67;;;;;;;13.00;55.69;100628.39;1795351;78;21015;-88
2021/06/03 00:55:55;;;;;;;3.85;1.02;;;;;;;12.98;55.62;100635.27;1814385;76;21144;-88
2021/06/03 00:58:26;;;;;;;3.67;0.88;;;;;;;12.96;55.95;100622.59;1800581;78;21092;-87
2021/06/03 01:00:55;;;;;;;4.25;2.00;;;;;;;12.92;55.96;100634.72;1774189;80;21034;-86
2021/06/03 01:03:24;;;;;;;5.67;2.05;;;;;;;12.90;56.05;100634.06;1778937;78;21074;-89
2021/06/03 01:05:59;;;;;;;2.25;1.40;;;;;;;12.87;56.00;100627.78;1784276;78;21134;-89
2021/06/03 01:08:38;;;;;;;3.30;1.77;;;;;;;12.85;56.19;100626.64;1779656;78;21408;-88
2021/06/03 01:11:16;;;;;;;1.47;1.37;;;;;;;12.81;56.47;100620.55;1784305;78;21066;-87
2021/06/03 01:14:00;;;;;;;5.22;1.82;;;;;;;12.78;56.19;100624.95;1763119;80;21038;-89
2021/06/03 01:16:28;;;;;;;3.08;1.82;;;;;;;12.76;56.13;100624.32;1762925;80;21054;-90
2021/06/03 01:18:56;;;;;;;3.58;1.50;;;;;;;12.75;56.36;100625.33;1764655;80;21199;-89
2021/06/03 01:21:40;;;;;;;4.17;1.32;;;;;;;12.76;56.21;100627.00;1763558;80;21043;-89
2021/06/03 01:24:30;;;;;;;2.90;1.60;;;;;;;12.66;56.69;100629.50;1756978;79;20993;-89
2021/06/03 01:27:09;;;;;;;7.90;2.20;;;;;;;12.63;56.73;100633.07;1756225;80;21058;-87
2021/06/03 01:30:09;;;;;;;4.10;1.50;;;;;;;12.57;56.57;100623.98;1760860;81;21002;-90
2021/06/03 01:32:42;;;;;;;4.28;1.70;;;;;;;12.56;57.04;100630.85;1725776;81;20995;-89
2021/06/03 01:35:16;;;;;;;6.20;1.87;;;;;;;12.50;56.91;100627.11;1748711;80;21070;-87
2021/06/03 01:37:47;;;;;;;8.28;1.85;;;;;;;12.50;56.84;100624.44;1760798;80;21601;-87
2021/06/03 01:40:18;;;;;;;3.20;2.40;;;;;;;12.50;56.90;100621.77;1769065;80;21095;-89
2021/06/03 01:42:46;;;;;;;7.05;2.10;;;;;;;12.50;56.78;100621.77;1725416;81;21030;-89
2021/06/03 01:45:14;;;;;;;4.25;1.60;;;;;;;12.52;56.74;100631.75;1732682;77;21000;-73
2021/06/03 01:47:43;;;;;;;5.03;2.10;;;;;;;12.54;56.91;100635.05;1735175;79;20965;-80
2021/06/03 01:50:13;;;;;;;2.35;1.25;;;;;;;12.49;56.90;100637.98;1745995;78;21034;-88
2021/06/03 01:52:41;;;;;;;10.05;2.10;;;;;;;12.45;57.04;100638.88;1713278;81;21122;-89
2021/06/03 01:55:12;;;;;;;5.37;2.47;;;;;;;12.40;57.15;100634.65;1732665;81;21093;-89
2021/06/03 01:57:39;;;;;;;5.40;1.87;;;;;;;12.36;57.23;100632.87;1749800;81;21017;-90
2021/06/03 02:00:15;;;;;;;3.77;1.40;;;;;;;12.33;57.37;100635.09;1747090;80;21064;-90
2021/06/03 02:02:51;;;;;;;8.40;2.17;;;;;;;12.29;57.40;100627.97;1744491;82;21128;-89
2021/06/03 02:05:20;;;;;;;4.58;2.00;;;;;;;12.26;57.59;100638.55;1739846;80;21156;-90
2021/06/03 02:07:49;;;;;;;7.22;2.02;;;;;;;12.20;57.71;100635.28;1738297;80;21334;-89
2021/06/03 02:10:18;;;;;;;4.50;2.00;;;;;;;12.18;57.88;100641.33;1740071;80;21807;-89
2021/06/03 02:13:01;;;;;;;2.35;1.40;;;;;;;12.19;57.51;100637.66;1763171;80;21599;-90
2021/06/03 02:15:34;;;;;;;5.00;1.87;;;;;;;12.19;57.81;100640.33;1721910;81;21065;-88
2021/06/03 02:18:04;;;;;;;3.20;2.07;;;;;;;12.19;57.46;100635.50;1761041;80;21021;-89
2021/06/03 02:20:36;;;;;;;3.02;1.90;;;;;;;12.25;57.34;100648.09;1762969;80;21597;-87
2021/06/03 02:23:03;;;;;;;12.60;1.63;;;;;;;12.33;57.23;100649.80;1717930;81;21580;-89
2021/06/03 02:25:30;;;;;;;5.22;1.82;;;;;;;12.34;57.32;100647.42;1732486;81;21051;-90
2021/06/03 02:27:58;;;;;;;10.78;2.17;;;;;;;12.42;56.99;100644.63;1724842;82;21011;-89
2021/06/03 02:30:26;;;;;;;3.90;1.45;;;;;;;12.55;56.78;100642.06;1759695;80;21585;-91
2021/06/03 02:32:54;;;;;;;3.70;2.33;;;;;;;12.72;56.38;100649.30;1719492;82;21045;-89
2021/06/03 02:35:22;;;;;;;3.30;2.05;;;;;;;12.88;55.79;100650.01;1744675;80;21025;-90
2021/06/03 02:37:50;;;;;;;2.62;1.40;;;;;;;13.04;55.33;100645.70;1746083;80;21524;-88
2021/06/03 02:40:25;;;;;;;3.58;1.57;;;;;;;13.30;54.97;100657.55;1729715;82;21059;-89
2021/06/03 02:43:06;;;;;;;1.92;1.80;;;;;;;13.63;53.84;100663.91;1757014;80;21027;-91
2021/06/03 02:45:34;;;;;;;6.35;1.65;;;;;;;13.96;52.92;100658.36;1747132;80;21083;-90
2021/06/03 02:48:04;;;;;;;4.20;1.70;;;;;;;14.14;52.07;100655.08;1764488;80;21106;-89
2021/06/03 02:50:33;;;;;;;5.50;1.92;;;;;;;14.05;51.74;100623.61;1764323;80;20997;-89
2021/06/03 02:53:03;;;;;;;1.52;1.00;;;;;;;14.34;51.07;100654.59;1707658;83;21151;-90
2021/06/03 02:55:31;;;;;;;6.30;1.75;;;;;;;14.44;51.01;100661.41;1768270;78;21009;-89
2021/06/03 02:57:59;;;;;;;4.37;1.50;;;;;;;14.60;50.66;100666.41;1797241;78;21069;-90
2021/06/03 03:00:31;;;;;;;5.35;1.60;;;;;;;14.87;49.88;100665.84;1797293;78;21024;-90
2021/06/03 03:03:01;;;;;;;5.20;1.62;;;;;;;14.95;49.27;100665.62;1776131;79;21139;-87
2021/06/03 03:05:29;;;;;;;3.37;1.17;;;;;;;15.08;48.92;100668.80;1784655;79;21041;-89
2021/06/03 03:08:00;;;;;;;4.78;1.42;;;;;;;15.30;48.64;100663.19;1781885;79;21059;-89
2021/06/03 03:10:35;;;;;;;1.00;1.00;;;;;;;15.52;47.90;100663.20;1783230;79;21092;-89
2021/06/03 03:13:05;;;;;;;2.95;1.12;;;;;;;15.75;47.48;100664.58;1760074;79;21293;-89
2021/06/03 03:15:35;;;;;;;4.50;1.82;;;;;;;15.96;46.88;100666.94;1755275;79;21539;-89
2021/06/03 03:18:02;;;;;;;2.17;1.50;;;;;;;16.04;46.60;100656.44;1772669;79;21056;-89
2021/06/03 03:20:30;;;;;;;2.20;1.05;;;;;;;16.11;46.33;100663.95;1766804;79;21072;-89
2021/06/03 03:22:58;;;;;;;5.20;1.42;;;;;;;16.18;46.82;100661.73;1763285;80;21096;-89
2021/06/03 03:25:29;;;;;;;3.85;0.90;;;;;;;16.31;45.81;100658.94;1766016;80;21039;-89
2021/06/03 03:27:56;;;;;;;4.00;1.22;;;;;;;16.43;45.75;100654.52;1775189;79;21023;-90
2021/06/03 03:30:25;;;;;;;3.55;1.05;;;;;;;16.46;45.45;100651.90;1770724;79;21135;-89
2021/06/03 03:32:53;;;;;;;3.95;1.25;;;;;;;16.44;45.51;100657.50;1762669;79;21056;-87
2021/06/03 03:35:20;;;;;;;4.67;1.40;;;;;;;16.50;45.58;100656.64;1764847;79;21518;-84
2021/06/03 03:37:48;;;;;;;2.70;0.85;;;;;;;16.47;45.29;100660.29;1767712;79;21139;-86
2021/06/03 03:40:20;;;;;;;7.83;0.95;;;;;;;16.58;45.21;100658.76;1763542;79;21094;-87
2021/06/03 03:42:48;;;;;;;2.02;1.00;;;;;;;16.58;45.21;100658.76;1752188;80;20987;-89
2021/06/03 03:45:19;;;;;;;2.40;1.47;;;;;;;16.74;45.04;100657.68;1748935;80;21089;-86
2021/06/03 03:47:47;;;;;;;7.40;1.92;;;;;;;16.63;45.04;100661.59;1701217;83;21043;-90
2021/06/03 03:50:17;;;;;;;9.10;1.42;;;;;;;16.52;45.62;100661.81;1724687;81;21148;-90
2021/06/03 03:52:45;;;;;;;5.03;0.85;;;;;;;16.59;45.46;100655.82;1704750;82;21035;-87
2021/06/03 03:55:14;;;;;;;5.95;0.80;;;;;;;16.70;45.49;100650.25;1715624;82;21051;-85
2021/06/03 03:57:41;;;;;;;2.83;1.15;;;;;;;16.94;45.21;100653.99;1709138;82;21600;-91
2021/06/03 04:00:16;;;;;;;3.12;1.45;;;;;;;17.02;44.38;100651.53;1703143;79;20956;-74
2021/06/03 04:02:47;;;;;;;3.65;1.07;;;;;;;16.98;44.71;100654.37;1700391;81;21110;-92
2021/06/03 04:05:16;;;;;;;4.12;1.12;;;;;;;16.85;44.86;100659.36;1702616;81;21618;-90
2021/06/03 04:07:43;;;;;;;2.12;1.35;;;;;;;16.59;45.49;100663.08;1698615;83;21058;-89
2021/06/03 04:10:16;;;;;;;1.32;1.22;;;;;;;16.53;45.68;100668.29;1698521;83;21615;-89
2021/06/03 04:12:44;;;;;;;4.28;1.37;;;;;;;16.67;45.53;100668.17;1710330;82;21752;-88
2021/06/03 04:15:13;;;;;;;2.60;1.50;;;;;;;16.60;45.58;100668.25;1703090;82;21045;-93
2021/06/03 04:17:40;;;;;;;8.33;1.62;;;;;;;16.39;46.14;100666.77;1713384;82;21045;-90
2021/06/03 04:20:13;;;;;;;3.95;1.20;;;;;;;16.30;46.08;100671.58;1709795;82;21077;-92
2021/06/03 04:22:41;;;;;;;2.62;1.20;;;;;;;16.42;46.11;100675.73;1707348;81;22092;-93
2021/06/03 04:25:10;;;;;;;4.65;0.90;;;;;;;16.29;46.50;100672.64;1712154;82;21083;-92
2021/06/03 04:27:39;;;;;;;3.62;1.07;;;;;;;16.18;47.09;100680.06;1718941;82;22083;-91
2021/06/03 04:30:10;;;;;;;3.87;1.35;;;;;;;16.06;47.50;100675.87;1709402;82;21013;-92
2021/06/03 04:32:39;;;;;;;5.17;1.35;;;;;;;16.05;47.96;100685.49;1698594;82;21056;-92
2021/06/03 04:35:07;;;;;;;4.12;1.27;;;;;;;16.21;47.49;100687.67;1712556;82;21628;-91
2021/06/03 04:37:33;;;;;;;3.45;1.12;;;;;;;16.26;47.05;100695.11;1715155;82;21064;-94
2021/06/03 04:40:03;;;;;;;7.03;1.30;;;;;;;16.37;47.31;100693.06;1716237;82;21028;-92
2021/06/03 04:42:29;;;;;;;2.83;1.20;;;;;;;16.74;46.43;100691.33;1765822;81;21617;-91
2021/06/03 04:44:55;;;;;;;;;;;;;;;17.09;45.64;100679.22;1708798;82;21042;-92
2021/06/03 04:47:23;;;;;;;2.37;1.35;;;;;;;17.34;44.89;100682.38;1758645;80;20164;-93
2021/06/03 04:49:51;;;;;;;5.45;1.37;;;;;;;17.44;44.71;100679.96;1767219;80;21027;-91
2021/06/03 04:52:25;;;;;;;4.22;1.27;;;;;;;17.66;44.63;100681.14;1765070;81;21595;-93
2021/06/03 04:54:58;;;;;;;4.17;1.32;;;;;;;17.88;43.84;100672.08;1770728;80;21099;-92
2021/06/03 04:57:25;;;;;;;4.80;1.40;;;;;;;18.11;43.52;100677.25;1721699;82;20970;-91
2021/06/03 04:59:51;;;;;;;4.37;0.80;;;;;;;18.33;42.48;100678.06;1729025;81;21060;-95
2021/06/03 05:02:24;;;;;;;1.75;0.72;;;;;;;18.31;42.74;100680.17;1750382;81;20994;-95
2021/06/03 05:04:52;;;;;;;3.92;1.10;;;;;;;18.26;42.49;100678.17;1754303;80;21078;-94
2021/06/03 05:07:18;;;;;;;3.02;0.82;;;;;;;18.35;42.74;100676.80;1761586;81;21134;-91
2021/06/03 05:09:46;;;;;;;3.65;1.02;;;;;;;18.61;41.34;100682.30;1763235;81;21136;-90
2021/06/03 05:12:14;;;;;;;5.50;0.75;;;;;;;18.61;41.34;100682.30;1707963;81;21027;-85
2021/06/03 05:14:42;;;;;;;5.17;0.85;;;;;;;18.69;41.54;100674.37;1727015;82;21104;-92
2021/06/03 05:17:11;;;;;;;2.27;1.35;;;;;;;18.77;40.83;100681.30;1739017;81;21023;-95
2021/06/03 05:19:37;;;;;;;1.25;0.62;;;;;;;18.91;41.55;100680.05;1732326;82;21051;-93
2021/06/03 05:22:06;;;;;;;4.78;0.98;;;;;;;19.13;41.19;100687.02;1747661;80;21047;-89
2021/06/03 05:24:34;;;;;;;2.80;0.68;;;;;;;19.23;40.73;100681.84;1727417;82;21064;-90
2021/06/03 05:27:00;;;;;;;;;;;;;;;19.25;40.53;100679.72;1758159;81;21023;-89
2021/06/03 05:29:28;;;;;;;5.45;0.90;;;;;;;19.38;40.92;100682.70;1723583;82;20165;-90
2021/06/03 05:31:57;;;;;;;3.65;1.05;;;;;;;19.59;40.30;100686.64;1706667;82;20982;-88
2021/06/03 05:34:24;;;;;;;3.20;0.80;;;;;;;19.91;39.94;100685.37;1726273;81;21097;-91
2021/06/03 05:36:52;;;;;;;1.55;0.65;;;;;;;20.06;39.09;100688.89;1712937;82;21008;-91
2021/06/03 05:39:20;;;;;;;2.98;0.70;;;;;;;19.96;39.13;100682.23;1710860;82;21068;-90
2021/06/03 05:41:46;;;;;;;3.02;0.53;;;;;;;19.97;39.30;100693.34;1713749;82;21001;-90
2021/06/03 05:44:14;;;;;;;5.20;0.70;;;;;;;20.16;38.58;100695.86;1694290;83;21048;-87
2021/06/03 05:46:41;;;;;;;4.08;0.70;;;;;;;20.29;38.88;100692.03;1710909;82;21123;-88
2021/06/03 05:49:11;;;;;;;0.95;0.47;;;;;;;20.32;37.95;100694.23;1706068;83;21182;-91
2021/06/03 05:51:40;;;;;;;3.50;0.60;;;;;;;20.40;37.23;100701.97;1708048;82;21088;-86
2021/06/03 05:54:09;;;;;;;3.25;0.53;;;;;;;20.69;36.74;100704.08;1709833;82;21037;-79
2021/06/03 05:56:35;;;;;;;5.22;0.60;;;;;;;20.81;36.79;100699.92;1721650;82;21062;-93
2021/06/03 05:59:02;;;;;;;6.70;1.82;;;;;;;20.70;37.30;100693.55;1721569;82;21070;-87
2021/06/03 06:01:30;;;;;;;2.87;0.85;;;;;;;20.69;37.97;100698.66;1710342;82;21045;-90
2021/06/03 06:06:30;;;;;;;1.98;0.55;;;;;;;21.16;36.20;100693.39;1707256;82;21084;-88
2021/06/03 06:09:03;;;;;;;1.65;0.50;;;;;;;21.23;35.92;100693.20;1716647;82;21513;-88
2021/06/03 06:11:33;;;;;;;2.58;0.35;;;;;;;21.18;36.32;100695.32;1704534;82;21031;-83
2021/06/03 06:14:02;;;;;;;4.92;0.50;;;;;;;21.21;36.06;100700.25;1692592;82;21030;-86
2021/06/03 06:16:31;;;;;;;4.85;0.40;;;;;;;21.22;35.23;100697.81;1703657;81;21097;-85
2021/06/03 06:19:00;;;;;;;5.28;0.95;;;;;;;21.30;35.69;100694.66;1703251;82;20955;-89
2021/06/03 06:21:26;;;;;;;1.15;0.37;;;;;;;21.42;36.00;100693.72;1693547;82;21025;-89
2021/06/03 06:23:56;;;;;;;3.10;0.33;;;;;;;21.41;34.22;100680.70;1700321;84;20991;-91
2021/06/03 06:26:24;;;;;;;2.10;0.50;;;;;;;21.52;34.70;100687.11;1713968;82;21169;-91
2021/06/03 06:28:53;;;;;;;1.85;0.70;;;;;;;21.59;34.36;100686.39;1709702;82;21034;-87
2021/06/03 06:31:19;;;;;;;3.17;0.60;;;;;;;21.31;34.36;100669.73;1710685;82;21523;-92
2021/06/03 06:33:47;;;;;;;2.55;0.90;;;;;;;21.37;35.10;100693.94;1703178;82;21035;-90
2021/06/03 06:36:15;;;;;;;3.85;0.72;;;;;;;21.25;34.65;100695.97;1725053;82;21538;-93
2021/06/03 06:38:43;;;;;;;0.85;0.37;;;;;;;21.32;34.83;100698.48;1717951;83;21004;-92
2021/06/03 06:41:10;;;;;;;3.98;0.57;;;;;;;21.46;32.50;100724.19;1726890;82;21014;-87
2021/06/03 06:43:38;;;;;;;0.80;0.42;;;;;;;21.56;31.99;100700.44;1712420;82;21022;-90
2021/06/03 06:46:06;;;;;;;4.10;0.40;;;;;;;21.48;32.10;100692.22;1716716;80;21112;-89
2021/06/03 06:48:34;;;;;;;0.30;0.30;;;;;;;21.45;31.50;100714.41;1721194;83;21549;-89
2021/06/03 06:51:02;;;;;;;6.92;0.40;;;;;;;21.38;31.08;100702.92;1721673;83;21560;-93
2021/06/03 06:53:31;;;;;;;4.80;0.50;;;;;;;21.28;31.71;100685.95;1710637;83;21016;-92
2021/06/03 06:56:00;;;;;;;3.50;0.20;;;;;;;21.26;31.76;100693.52;1731037;80;21025;-90
2021/06/03 06:58:28;;;;;;;6.00;0.30;;;;;;;21.24;31.06;100684.02;1756804;80;21120;-94
2021/06/03 07:00:57;;;;;;;1.55;0.20;;;;;;;21.20;31.09;100668.23;1750886;80;21070;-90
2021/06/03 07:03:23;;;;;;;3.33;0.35;;;;;;;21.28;31.15;100709.55;1737440;80;21271;-85
2021/06/03 07:05:49;;;;;;;3.17;0.40;;;;;;;21.22;31.74;100680.73;1746376;80;21226;-86
2021/06/03 07:08:16;;;;;;;1.67;0.30;;;;;;;21.21;31.44;100685.34;1734499;80;20971;-90
2021/06/03 07:10:44;;;;;;;4.40;0.25;;;;;;;21.28;31.79;100700.05;1752157;80;21066;-92
2021/06/03 07:13:12;;;;;;;5.45;0.62;;;;;;;21.25;32.15;100687.83;1754328;80;20979;-86
2021/06/03 07:15:38;;;;;;;0.62;0.33;;;;;;;21.31;31.51;100697.66;1743885;80;21034;-87
2021/06/03 07:18:05;;;;;;;;;;;;;;;21.27;30.92;100678.09;1686039;83;21005;-89
2021/06/03 07:20:34;;;;;;;2.62;0.40;;;;;;;21.34;31.37;100692.27;1749366;80;20102;-91
2021/06/03 07:23:06;;;;;;;3.70;0.50;;;;;;;21.42;31.44;100672.86;1747083;80;21556;-91
2021/06/03 07:25:40;;;;;;;1.87;0.37;;;;;;;21.56;29.74;100686.34;1734374;80;21027;-85
2021/06/03 07:28:09;;;;;;;3.67;0.50;;;;;;;21.65;29.57;100699.48;1737443;80;20999;-88
2021/06/03 07:30:37;;;;;;;2.52;0.30;;;;;;;21.51;30.29;100676.80;1751635;80;21582;-89
2021/06/03 07:33:05;;;;;;;3.70;0.40;;;;;;;21.42;30.61;100673.38;1744953;78;21086;-92
2021/06/03 07:35:35;;;;;;;1.20;0.53;;;;;;;21.38;30.25;100670.38;1753573;80;21130;-87
2021/06/03 07:38:04;;;;;;;2.77;0.20;;;;;;;21.40;30.52;100679.08;1760163;80;21024;-93
2021/06/03 07:40:37;;;;;;;3.45;0.30;;;;;;;21.39;29.40;100701.83;1729393;81;21062;-89
2021/06/03 07:43:10;;;;;;;1.62;0.40;;;;;;;21.23;29.45;100711.66;1766282;80;21056;-92
2021/06/03 07:45:38;;;;;;;1.75;0.40;;;;;;;20.98;29.16;100709.39;1748649;80;21015;-85
2021/06/03 07:48:07;;;;;;;2.80;0.60;;;;;;;20.73;30.53;100701.16;1754264;80;21081;-89
2021/06/03 07:50:36;;;;;;;3.87;0.70;;;;;;;20.54;30.50;100705.16;1737921;80;20955;-93
2021/06/03 07:53:05;;;;;;;5.12;0.42;;;;;;;20.45;31.31;100680.91;1755930;80;21134;-91
2021/06/03 07:55:32;;;;;;;3.52;0.20;;;;;;;20.48;32.23;100683.14;1749374;80;21122;-88
2021/06/03 07:58:04;;;;;;;9.18;0.42;;;;;;;20.59;29.84;100684.95;1728330;82;21088;-92
2021/06/03 08:00:39;;;;;;;2.65;0.30;;;;;;;20.55;30.32;100685.13;1737191;80;21054;-91
2021/06/03 08:03:06;;;;;;;4.28;0.20;;;;;;;20.51;30.37;100679.41;1746327;80;20978;-90
2021/06/03 08:05:32;;;;;;;0.78;0.30;;;;;;;20.49;30.70;100684.77;1745148;80;21012;-91
2021/06/03 08:08:00;;;;;;;3.25;0.30;;;;;;;20.51;29.90;100688.89;1744793;80;21583;-90
2021/06/03 08:10:31;;;;;;;3.92;0.20;;;;;;;20.42;30.55;100714.18;1729522;80;21015;-89
2021/06/03 08:13:04;;;;;;;5.33;0.10;;;;;;;20.35;30.55;100699.98;1736208;80;20975;-88
2021/06/03 08:15:46;;;;;;;0.62;0.40;;;;;;;20.33;29.02;100763.02;1740380;80;21015;-94
2021/06/03 08:18:14;;;;;;;0.20;0.17;;;;;;;20.22;29.66;100734.94;1737966;80;21047;-95
2021/06/03 08:20:48;;;;;;;0.60;0.20;;;;;;;20.17;30.08;100740.78;1741657;80;22253;-91
2021/06/03 08:23:17;;;;;;;0.65;0.20;;;;;;;20.16;30.96;100691.80;1730077;80;22205;-90
2021/06/03 08:25:50;;;;;;;1.95;0.55;;;;;;;20.26;31.32;100705.50;1744972;80;21002;-92
2021/06/03 08:28:29;;;;;;;5.28;0.37;;;;;;;20.38;30.67;100734.69;1742346;80;21098;-92
2021/06/03 08:30:58;;;;;;;1.87;0.40;;;;;;;20.46;30.49;100694.75;1749895;80;21039;-90
2021/06/03 08:33:28;;;;;;;9.53;0.42;;;;;;;20.41;30.24;100704.41;1740873;80;21029;-91
2021/06/03 08:35:54;;;;;;;1.22;0.40;;;;;;;20.30;30.51;100723.42;1741145;80;21623;-89
2021/06/03 08:38:22;;;;;;;1.60;0.30;;;;;;;20.15;31.24;100689.59;1749532;80;21062;-91
2021/06/03 08:40:56;;;;;;;0.20;0.20;;;;;;;20.10;30.79;100738.75;1747812;80;21043;-85
2021/06/03 08:43:26;;;;;;;1.75;0.28;;;;;;;20.07;30.66;100679.72;1733581;82;21031;-92
2021/06/03 08:45:56;;;;;;;2.27;0.10;;;;;;;20.08;29.86;100710.60;1729967;80;21181;-93
2021/06/03 08:48:23;;;;;;;3.08;0.30;;;;;;;20.04;30.47;100685.06;1726763;82;21024;-91
2021/06/03 08:51:03;;;;;;;3.08;0.45;;;;;;;20.05;32.13;100694.84;1734284;82;21040;-90
2021/06/03 08:53:33;;;;;;;3.50;0.40;;;;;;;20.10;32.54;100685.98;1717893;83;21046;-90
2021/06/03 08:56:18;;;;;;;1.95;0.47;;;;;;;20.15;32.32;100691.49;1741792;79;21055;-92
2021/06/03 08:58:48;;;;;;;0.50;0.30;;;;;;;20.15;32.62;100694.20;1729776;82;21047;-85
2021/06/03 09:01:16;;;;;;;2.70;0.40;;;;;;;20.14;32.86;100693.93;1746433;82;20951;-89
2021/06/03 09:03:47;;;;;;;3.25;0.35;;;;;;;20.18;32.20;100704.01;1743691;81;21493;-91
2021/06/03 09:06:16;;;;;;;2.65;0.20;;;;;;;20.22;32.42;100675.39;1744133;82;21087;-90
2021/06/03 09:08:56;;;;;;;4.15;0.42;;;;;;;20.33;30.89;100666.11;1666214;84;21508;-90
2021/06/03 09:11:26;;;;;;;0.62;0.30;;;;;;;20.38;30.79;100664.30;1669178;83;21192;-89
2021/06/03 09:14:02;;;;;;;1.75;0.20;;;;;;;20.35;31.71;100682.38;1669204;84;21017;-85
2021/06/03 09:16:34;;;;;;;1.05;0.25;;;;;;;20.34;32.44;100667.73;1678638;85;20986;-89
2021/06/03 09:19:13;;;;;;;8.10;0.40;;;;;;;20.32;32.02;100680.15;1670414;83;21558;-81
2021/06/03 09:21:51;;;;;;;2.25;0.30;;;;;;;20.28;32.13;100681.70;1679712;84;21022;-91
2021/06/03 09:24:21;;;;;;;0.50;0.20;;;;;;;20.26;32.47;100709.55;1689408;83;21165;-89
2021/06/03 09:26:52;;;;;;;3.87;0.20;;;;;;;20.22;32.14;100693.52;1676542;84;21010;-86
2021/06/03 09:29:30;;;;;;;3.58;0.20;;;;;;;20.08;32.16;100686.76;1669939;83;22095;-87
2021/06/03 09:32:12;;;;;;;2.08;0.30;;;;;;;20.01;32.09;100679.62;1686001;85;21054;-86
2021/06/03 09:34:41;;;;;;;4.00;0.20;;;;;;;19.99;31.82;100695.82;1678447;83;21555;-89
2021/06/03 09:37:10;;;;;;;3.72;0.20;;;;;;;20.00;32.00;100684.77;1689250;84;21097;-89
2021/06/03 09:39:41;;;;;;;2.05;0.20;;;;;;;20.10;32.19;100675.16;1697620;84;21042;-89
2021/06/03 09:42:14;;;;;;;0.60;0.33;;;;;;;20.19;32.32;100686.72;1706833;82;21034;-91
2021/06/03 09:44:48;;;;;;;3.12;0.10;;;;;;;20.25;31.88;100688.14;1740376;81;21508;-90
2021/06/03 09:47:18;;;;;;;2.62;0.20;;;;;;;20.20;32.30;100678.88;1744811;82;21187;-89
2021/06/03 09:49:55;;;;;;;1.77;0.30;;;;;;;20.06;32.83;100695.66;1723319;82;21022;-89
2021/06/03 09:52:34;;;;;;;4.78;0.40;;;;;;;20.02;32.46;100692.09;1735569;82;21072;-90
2021/06/03 09:55:06;;;;;;;3.80;0.20;;;;;;;19.99;32.90;100704.75;1775104;80;21006;-90
2021/06/03 09:57:43;;;;;;;2.58;0.40;;;;;;;19.99;33.03;100715.57;1773845;80;21112;-88
2021/06/03 10:00:20;;;;;;;3.00;0.37;;;;;;;20.00;32.98;100720.44;1753056;80;21077;-89
2021/06/03 10:02:48;;;;;;;1.20;0.40;;;;;;;19.93;32.73;100697.61;1767860;81;21034;-88
2021/06/03 10:05:22;;;;;;;1.67;0.40;;;;;;;19.87;33.01;100703.95;1774221;80;21037;-90
2021/06/03 10:08:05;;;;;;;1.27;0.30;;;;;;;19.88;33.07;100702.09;1771227;80;21021;-88
2021/06/03 10:10:37;;;;;;;6.58;0.40;;;;;;;19.86;32.64;100702.34;1760899;81;20977;-89
2021/06/03 10:13:12;;;;;;;2.37;0.30;;;;;;;19.87;33.03;100708.55;1755053;79;20995;-91
2021/06/03 10:15:43;;;;;;;1.52;0.40;;;;;;;19.91;33.29;100701.09;1777567;79;21006;-88
2021/06/03 10:18:18;;;;;;;2.10;0.20;;;;;;;19.95;33.21;100711.71;1778419;79;20970;-88
2021/06/03 10:20:54;;;;;;;3.12;0.53;;;;;;;20.04;33.29;100740.53;1767236;79;21041;-89
2021/06/03 10:23:29;;;;;;;1.27;0.30;;;;;;;20.14;32.38;100759.69;1753991;79;20958;-87
2021/06/03 10:26:03;;;;;;;3.70;0.30;;;;;;;20.15;32.44;100691.49;1776460;79;21542;-90
2021/06/03 10:28:30;;;;;;;0.53;0.50;;;;;;;20.17;32.90;100709.66;1762409;80;21002;-89
2021/06/03 10:31:07;;;;;;;0.60;0.42;;;;;;;20.19;33.04;100699.41;1763869;79;21566;-90
2021/06/03 10:33:31;;;;;;;2.33;0.33;;;;;;;20.20;33.00;100710.54;1763362;78;21071;-93
2021/06/03 10:36:04;;;;;;;4.70;0.33;;;;;;;20.16;33.35;100698.56;1773756;79;21042;-93
2021/06/03 10:38:32;;;;;;;1.10;0.20;;;;;;;20.14;32.51;100699.34;1765188;81;21078;-92
2021/06/03 10:41:04;;;;;;;2.75;0.40;;;;;;;19.98;33.05;100713.10;1761869;79;21073;-87
2021/06/03 10:43:36;;;;;;;3.30;0.72;;;;;;;19.82;33.32;100718.76;1749727;80;21029;-89
2021/06/03 10:46:06;;;;;;;2.50;0.37;;;;;;;19.76;33.65;100698.06;1763283;78;20973;-92
2021/06/03 10:48:35;;;;;;;3.67;0.80;;;;;;;19.73;34.16;100717.49;1764440;81;20966;-93
2021/06/03 10:51:08;;;;;;;4.15;0.30;;;;;;;19.80;34.27;100708.17;1765449;80;21050;-90
2021/06/03 10:53:45;;;;;;;2.00;0.57;;;;;;;19.91;33.48;100719.18;1761268;80;21339;-90
2021/06/03 10:56:18;;;;;;;;;;;;;;;19.97;33.79;100716.88;1757845;79;21022;-90
2021/06/03 10:58:47;;;;;;;3.90;0.33;;;;;;;20.01;34.38;100713.98;1724542;80;20421;-89
2021/06/03 11:01:17;;;;;;;2.02;0.40;;;;;;;20.01;33.82;100703.16;1737294;82;21132;-90
2021/06/03 11:03:50;;;;;;;5.15;0.72;;;;;;;20.07;33.70;100698.13;1732200;82;21058;-90
2021/06/03 11:06:20;;;;;;;2.95;0.20;;;;;;;20.14;33.49;100696.09;1728449;82;21017;-91
2021/06/03 11:09:01;;;;;;;2.50;0.30;;;;;;;20.16;33.42;100706.68;1743189;80;21070;-87
2021/06/03 11:11:34;;;;;;;3.30;0.20;;;;;;;20.14;33.54;100702.05;1726996;82;21042;-90
2021/06/03 11:14:17;;;;;;;1.85;0.20;;;;;;;20.09;33.71;100697.34;1720828;82;21177;-88
2021/06/03 11:16:54;;;;;;;1.82;0.30;;;;;;;20.05;34.22;100707.56;1712144;82;21079;-89
2021/06/03 11:19:29;;;;;;;;;;;;;;;20.04;34.84;100720.24;1735475;82;21045;-88
2021/06/03 11:22:02;;;;;;;5.90;0.33;;;;;;;20.09;34.02;100705.46;1744780;82;20144;-87
2021/06/03 11:24:38;;;;;;;5.03;0.30;;;;;;;20.10;34.48;100703.06;1734487;81;21073;-89
2021/06/03 11:27:13;;;;;;;4.47;0.20;;;;;;;20.19;34.22;100707.02;1737766;82;21540;-88
2021/06/03 11:29:51;;;;;;;2.47;0.65;;;;;;;20.19;33.85;100703.47;1735230;82;21029;-92
2021/06/03 11:32:29;;;;;;;3.12;0.53;;;;;;;20.17;33.68;100709.66;1729672;82;21040;-87
2021/06/03 11:35:03;;;;;;;1.62;0.20;;;;;;;20.13;33.43;100705.80;1775785;78;21005;-87
2021/06/03 11:37:41;;;;;;;2.30;0.15;;;;;;;20.07;34.00;100710.30;1782122;79;21021;-85
2021/06/03 11:40:19;;;;;;;0.57;0.30;;;;;;;20.08;33.54;100705.19;1783219;78;21116;-92
2021/06/03 11:43:00;;;;;;;3.67;0.20;;;;;;;20.13;34.37;100702.55;1802816;78;21072;-86
2021/06/03 11:45:33;;;;;;;3.30;0.60;;;;;;;20.20;34.01;100686.18;1818107;77;20993;-92
2021/06/03 11:48:10;;;;;;;1.80;0.40;;;;;;;20.25;34.13;100688.98;1818042;77;20985;-90